createdAt,value
2017-12-22T00:02:01.659Z,113.80
2017-12-22T00:04:28.052Z,139.73
2017-12-22T00:06:54.459Z,117.57
2017-12-22T00:09:20.815Z,133.73
2017-12-22T00:11:47.216Z,118.93
2017-12-22T00:14:13.636Z,95.77
2017-12-22T00:16:40.748Z,126.70
2017-12-22T00:19:07.165Z,117.33
2017-12-22T00:21:33.527Z,151.10
2017-12-22T00:23:59.902Z,114.47
2017-12-22T00:26:26.431Z,126.83
2017-12-22T00:28:52.814Z,146.20
2017-12-22T00:31:19.244Z,99.00
2017-12-22T00:33:45.655Z,124.07
2017-12-22T00:36:13.516Z,127.83
2017-12-22T00:38:39.909Z,117.47
2017-12-22T00:41:06.294Z,107.37
2017-12-22T00:43:32.670Z,94.57
2017-12-22T00:46:02.128Z,136.43
2017-12-22T00:48:28.475Z,143.67
2017-12-22T00:50:54.843Z,117.27
2017-12-22T00:53:21.228Z,84.10
2017-12-22T00:55:48.337Z,110.63
2017-12-22T00:58:14.716Z,92.07
2017-12-22T01:00:41.074Z,146.20
2017-12-22T01:03:07.423Z,113.77
2017-12-22T01:05:35.256Z,153.53
2017-12-22T01:08:01.643Z,126.20
2017-12-22T01:10:28.776Z,143.47
2017-12-22T01:12:55.184Z,105.27
2017-12-22T01:15:27.791Z,107.27
2017-12-22T01:18:00.336Z,124.13
2017-12-22T01:20:26.716Z,88.57
2017-12-22T01:22:53.064Z,92.27
2017-12-22T01:25:19.423Z,100.37
2017-12-22T01:27:45.781Z,93.30
2017-12-22T01:30:12.159Z,86.10
2017-12-22T01:32:39.260Z,112.60
2017-12-22T01:35:05.624Z,103.13
2017-12-22T01:37:31.964Z,67.87
2017-12-22T01:39:58.371Z,101.87
2017-12-22T01:42:24.712Z,112.70
2017-12-22T01:44:51.087Z,100.60
2017-12-22T01:47:17.432Z,110.63
2017-12-22T01:49:43.801Z,90.77
2017-12-22T01:52:10.144Z,148.23
2017-12-22T01:54:36.503Z,101.33
2017-12-22T01:57:02.901Z,94.57
2017-12-22T01:59:29.282Z,88.53
2017-12-22T02:01:56.362Z,95.20
2017-12-22T02:04:22.692Z,100.60
2017-12-22T02:06:49.772Z,91.73
2017-12-22T02:09:16.090Z,77.07
2017-12-22T02:11:42.464Z,70.13
2017-12-22T02:14:08.899Z,79.33
2017-12-22T02:16:35.293Z,67.50
2017-12-22T02:19:01.693Z,80.07
2017-12-22T02:21:29.177Z,66.10
2017-12-22T02:23:55.583Z,84.50
2017-12-22T02:26:22.704Z,64.40
2017-12-22T02:28:49.075Z,73.30
2017-12-22T02:31:16.258Z,67.83
2017-12-22T02:33:42.590Z,63.60
2017-12-22T02:36:09.744Z,73.00
2017-12-22T02:38:36.094Z,53.67
2017-12-22T02:41:03.227Z,60.47
2017-12-22T02:43:29.625Z,44.70
2017-12-22T02:45:55.989Z,69.70
2017-12-22T02:48:22.334Z,57.30
2017-12-22T02:50:48.712Z,50.83
2017-12-22T02:53:15.085Z,52.90
2017-12-22T02:55:42.191Z,68.60
2017-12-22T02:58:08.568Z,47.43
2017-12-22T03:00:34.940Z,58.83
2017-12-22T03:03:01.349Z,70.40
2017-12-22T03:05:27.727Z,39.63
2017-12-22T03:07:54.824Z,46.50
2017-12-22T03:10:21.207Z,61.27
2017-12-22T03:12:47.597Z,41.80
2017-12-22T03:15:14.013Z,46.93
2017-12-22T03:17:41.149Z,36.63
2017-12-22T03:20:07.499Z,35.90
2017-12-22T03:22:34.759Z,36.17
2017-12-22T03:25:01.108Z,37.97
2017-12-22T03:27:27.511Z,34.83
2017-12-22T03:29:53.892Z,32.13
2017-12-22T03:32:20.281Z,22.87
2017-12-22T03:34:46.704Z,27.77
2017-12-22T03:37:13.805Z,31.33
2017-12-22T03:39:40.164Z,27.47
2017-12-22T03:42:06.554Z,25.30
2017-12-22T03:44:32.877Z,25.97
2017-12-22T03:46:59.219Z,24.87
2017-12-22T03:49:26.303Z,25.07
2017-12-22T03:51:52.632Z,23.63
2017-12-22T03:54:19.772Z,20.37
2017-12-22T03:56:46.085Z,28.23
2017-12-22T03:59:12.433Z,17.63
2017-12-22T04:01:38.759Z,21.73
2017-12-22T04:04:05.388Z,25.70
2017-12-22T04:06:31.832Z,20.40
2017-12-22T04:08:58.213Z,21.43
2017-12-22T04:11:25.381Z,17.80
2017-12-22T04:13:53.209Z,24.50
2017-12-22T04:16:19.544Z,26.27
2017-12-22T04:18:46.601Z,24.53
2017-12-22T04:21:13.672Z,18.57
2017-12-22T04:23:40.009Z,20.20
2017-12-22T04:26:06.393Z,15.70
2017-12-22T04:28:32.781Z,17.77
2017-12-22T04:30:59.943Z,21.57
2017-12-22T04:33:26.333Z,20.23
2017-12-22T04:35:52.687Z,19.53
2017-12-22T04:38:19.072Z,23.33
2017-12-22T04:40:46.263Z,19.83
2017-12-22T04:43:12.629Z,19.70
2017-12-22T04:45:39.376Z,19.73
2017-12-22T04:48:05.759Z,19.67
2017-12-22T04:50:32.104Z,16.40
2017-12-22T04:52:58.516Z,14.10
2017-12-22T04:55:24.870Z,18.00
2017-12-22T04:57:51.229Z,16.43
2017-12-22T05:00:17.685Z,16.73
2017-12-22T05:02:44.041Z,14.30
2017-12-22T05:05:10.486Z,13.50
2017-12-22T05:07:36.864Z,17.90
2017-12-22T05:10:03.930Z,14.40
2017-12-22T05:12:30.367Z,26.30
2017-12-22T05:14:56.765Z,13.40
2017-12-22T05:17:23.177Z,15.47
2017-12-22T05:19:49.572Z,18.50
2017-12-22T05:22:15.949Z,23.87
2017-12-22T05:24:43.120Z,17.83
2017-12-22T05:27:09.488Z,16.70
2017-12-22T05:29:36.684Z,12.93
2017-12-22T05:32:03.369Z,23.50
2017-12-22T05:34:29.939Z,23.70
2017-12-22T05:36:56.462Z,15.50
2017-12-22T05:39:23.218Z,15.87
2017-12-22T05:41:50.373Z,15.47
2017-12-22T05:44:16.749Z,25.67
2017-12-22T05:46:43.919Z,16.17
2017-12-22T05:49:10.272Z,21.50
2017-12-22T05:51:37.424Z,15.70
2017-12-22T05:54:04.808Z,27.27
2017-12-22T05:56:31.181Z,12.80
2017-12-22T05:58:57.612Z,16.10
2017-12-22T06:01:23.991Z,10.07
2017-12-22T06:03:50.393Z,14.57
2017-12-22T06:06:16.760Z,15.40
2017-12-22T06:08:43.949Z,11.70
2017-12-22T06:11:10.352Z,10.50
2017-12-22T06:13:36.766Z,16.63
2017-12-22T06:16:04.604Z,15.50
2017-12-22T06:18:38.898Z,24.23
2017-12-22T06:21:05.264Z,13.23
2017-12-22T06:23:31.625Z,27.67
2017-12-22T06:25:58.008Z,26.13
2017-12-22T06:28:24.392Z,17.20
2017-12-22T06:30:50.760Z,19.73
2017-12-22T06:33:17.104Z,18.97
2017-12-22T06:35:43.479Z,14.33
2017-12-22T06:38:10.570Z,31.00
2017-12-22T06:40:38.532Z,19.50
2017-12-22T06:43:04.898Z,19.37
2017-12-22T06:45:31.277Z,22.07
2017-12-22T06:47:57.649Z,29.03
2017-12-22T06:50:24.733Z,34.10
2017-12-22T06:52:51.849Z,19.43
2017-12-22T06:55:18.164Z,28.27
2017-12-22T06:57:44.524Z,27.20
2017-12-22T07:00:10.854Z,27.97
2017-12-22T07:02:37.304Z,43.00
2017-12-22T07:05:03.639Z,37.17
2017-12-22T07:07:30.019Z,43.53
2017-12-22T07:09:56.380Z,47.70
2017-12-22T07:12:22.792Z,69.73
2017-12-22T07:14:49.184Z,54.73
2017-12-22T07:17:15.812Z,66.57
2017-12-22T07:19:42.255Z,62.40
2017-12-22T07:22:08.701Z,66.90
2017-12-22T07:24:35.985Z,61.40
2017-12-22T07:27:02.417Z,70.20
2017-12-22T07:29:28.890Z,57.23
2017-12-22T07:31:55.291Z,74.23
2017-12-22T07:34:21.961Z,72.30
2017-12-22T07:36:49.105Z,74.73
2017-12-22T07:39:15.611Z,80.97
2017-12-22T07:41:42.112Z,77.70
2017-12-22T07:44:08.625Z,87.97
2017-12-22T07:46:35.893Z,70.80
2017-12-22T07:49:02.328Z,77.87
2017-12-22T07:51:28.969Z,88.90
2017-12-22T07:53:56.606Z,86.33
2017-12-22T07:56:23.225Z,87.33
2017-12-22T07:58:49.756Z,83.40
2017-12-22T08:01:16.313Z,72.93
2017-12-22T08:03:42.798Z,85.33
2017-12-22T08:06:09.344Z,103.90
2017-12-22T08:08:35.820Z,97.93
2017-12-22T08:11:02.322Z,85.33
2017-12-22T08:13:28.725Z,83.70
2017-12-22T08:15:55.269Z,89.83
2017-12-22T08:18:21.827Z,93.17
2017-12-22T08:20:48.284Z,82.97
2017-12-22T08:23:14.691Z,99.73
2017-12-22T08:25:41.108Z,105.40
2017-12-22T08:28:07.634Z,93.17
2017-12-22T08:30:34.046Z,99.27
2017-12-22T08:33:00.453Z,102.93
2017-12-22T08:35:26.861Z,90.10
2017-12-22T08:37:54.016Z,90.20
2017-12-22T08:40:21.212Z,74.83
2017-12-22T08:42:47.678Z,95.17
2017-12-22T08:45:14.165Z,90.43
2017-12-22T08:47:40.584Z,100.70
2017-12-22T08:50:07.788Z,84.90
2017-12-22T08:52:34.928Z,79.37
2017-12-22T08:55:01.389Z,83.63
2017-12-22T08:57:27.800Z,83.57
2017-12-22T08:59:54.745Z,114.80
2017-12-22T09:02:21.344Z,88.43
2017-12-22T09:04:47.939Z,75.43
2017-12-22T09:07:14.328Z,119.23
2017-12-22T09:09:43.639Z,105.13
2017-12-22T09:12:10.056Z,87.10
2017-12-22T09:14:36.496Z,87.50
2017-12-22T09:17:03.170Z,80.27
2017-12-22T09:19:29.589Z,92.23
2017-12-22T09:22:03.366Z,77.57
2017-12-22T09:24:29.860Z,85.80
2017-12-22T09:26:57.023Z,62.47
2017-12-22T09:29:23.483Z,55.10
2017-12-22T09:31:49.915Z,40.03
2017-12-22T09:34:16.312Z,51.67
2017-12-22T09:36:42.778Z,47.90
2017-12-22T09:39:09.343Z,69.40
2017-12-22T09:41:38.650Z,47.93
2017-12-22T09:44:05.317Z,55.03
2017-12-22T09:46:31.726Z,60.30
2017-12-22T09:48:58.950Z,46.47
2017-12-22T09:51:25.435Z,54.27
2017-12-22T09:53:51.852Z,53.60
2017-12-22T09:56:18.316Z,47.83
2017-12-22T09:58:47.405Z,52.27
2017-12-22T10:01:14.571Z,48.30
2017-12-22T10:03:41.909Z,51.97
2017-12-22T10:06:09.128Z,48.07
2017-12-22T10:08:35.600Z,48.93
2017-12-22T10:11:01.972Z,54.70
2017-12-22T10:13:29.154Z,52.47
2017-12-22T10:15:55.732Z,93.53
2017-12-22T10:18:22.881Z,62.90
2017-12-22T10:20:50.088Z,53.17
2017-12-22T10:23:16.480Z,48.53
2017-12-22T10:25:42.971Z,43.10
2017-12-22T10:28:09.420Z,39.00
2017-12-22T10:30:35.888Z,41.50
2017-12-22T10:33:02.261Z,60.57
2017-12-22T10:35:29.351Z,42.63
2017-12-22T10:37:55.848Z,52.47
2017-12-22T10:40:22.249Z,45.47
2017-12-22T10:42:49.712Z,42.67
2017-12-22T10:45:16.273Z,73.00
2017-12-22T10:47:44.672Z,51.63
2017-12-22T10:50:12.279Z,55.10
2017-12-22T10:52:38.967Z,39.30
2017-12-22T10:55:06.237Z,46.57
2017-12-22T10:57:32.587Z,45.03
2017-12-22T10:59:59.004Z,45.27
2017-12-22T11:02:26.412Z,48.20
2017-12-22T11:04:52.843Z,37.97
2017-12-22T11:07:20.008Z,49.70
2017-12-22T11:09:47.152Z,40.60
2017-12-22T11:12:14.352Z,47.23
2017-12-22T11:14:41.445Z,44.67
2017-12-22T11:17:08.605Z,40.83
2017-12-22T11:19:35.807Z,44.30
2017-12-22T11:22:02.637Z,45.13
2017-12-22T11:24:29.754Z,45.27
2017-12-22T11:26:56.123Z,38.53
2017-12-22T11:29:22.555Z,30.67
2017-12-22T11:31:49.059Z,41.73
2017-12-22T11:34:16.933Z,30.40
2017-12-22T11:36:44.129Z,42.50
2017-12-22T11:39:11.432Z,38.63
2017-12-22T11:41:37.870Z,34.37
2017-12-22T11:44:05.455Z,27.77
2017-12-22T11:46:31.928Z,29.90
2017-12-22T11:48:59.074Z,24.83
2017-12-22T11:51:25.454Z,29.33
2017-12-22T11:53:52.801Z,25.33
2017-12-22T11:56:19.989Z,30.50
2017-12-22T11:58:47.157Z,32.63
2017-12-22T12:01:14.307Z,29.53
2017-12-22T12:03:40.681Z,30.33
2017-12-22T12:06:07.856Z,29.40
2017-12-22T12:08:35.004Z,23.50
2017-12-22T12:11:01.389Z,27.70
2017-12-22T12:13:28.617Z,26.13
2017-12-22T12:15:55.009Z,23.37
2017-12-22T12:18:21.461Z,29.90
2017-12-22T12:20:49.470Z,26.37
2017-12-22T12:23:15.967Z,24.73
2017-12-22T12:25:43.127Z,26.23
2017-12-22T12:28:10.292Z,21.80
2017-12-22T12:30:36.782Z,23.43
2017-12-22T12:33:03.215Z,22.40
2017-12-22T12:35:29.567Z,24.13
2017-12-22T12:37:56.069Z,19.87
2017-12-22T12:40:22.508Z,19.13
2017-12-22T12:42:49.001Z,18.23
2017-12-22T12:45:15.408Z,19.73
2017-12-22T12:47:41.885Z,22.93
2017-12-22T12:50:08.317Z,21.33
2017-12-22T12:52:34.720Z,28.13
2017-12-22T12:55:01.187Z,24.60
2017-12-22T12:57:27.826Z,23.47
2017-12-22T12:59:54.296Z,27.10
2017-12-22T13:02:20.708Z,28.03
2017-12-22T13:04:47.298Z,25.37
2017-12-22T13:07:13.706Z,23.83
2017-12-22T13:09:40.147Z,35.07
2017-12-22T13:12:07.292Z,25.13
2017-12-22T13:14:34.481Z,19.73
2017-12-22T13:17:00.861Z,29.97
2017-12-22T13:19:27.319Z,23.90
2017-12-22T13:21:54.493Z,20.43
2017-12-22T13:24:20.949Z,27.87
2017-12-22T13:26:47.328Z,25.83
2017-12-22T13:29:14.490Z,22.23
2017-12-22T13:31:40.888Z,25.33
2017-12-22T13:34:14.398Z,27.10
2017-12-22T13:36:40.780Z,29.37
2017-12-22T13:39:07.245Z,22.43
2017-12-22T13:41:34.346Z,32.10
2017-12-22T13:44:00.833Z,35.17
2017-12-22T13:46:27.231Z,21.63
2017-12-22T13:48:56.747Z,29.23
2017-12-22T13:51:23.192Z,25.00
2017-12-22T13:53:49.682Z,34.63
2017-12-22T13:56:16.061Z,24.77
2017-12-22T13:58:42.561Z,31.70
2017-12-22T14:01:08.944Z,28.23
2017-12-22T14:03:36.088Z,30.60
2017-12-22T14:06:02.620Z,27.63
2017-12-22T14:08:29.041Z,28.73
2017-12-22T14:10:55.443Z,29.97
2017-12-22T14:13:21.884Z,24.47
2017-12-22T14:15:48.305Z,22.23
2017-12-22T14:18:15.018Z,28.60
2017-12-22T14:20:41.436Z,28.17
2017-12-22T14:23:07.864Z,21.50
2017-12-22T14:25:34.440Z,23.00
2017-12-22T14:28:00.999Z,21.40
2017-12-22T14:30:27.432Z,17.07
2017-12-22T14:32:54.574Z,18.17
2017-12-22T14:35:27.975Z,21.03
2017-12-22T14:37:54.352Z,18.20
2017-12-22T14:40:20.753Z,24.23
2017-12-22T14:42:47.168Z,19.43
2017-12-22T14:45:14.454Z,25.70
2017-12-22T14:47:41.628Z,31.10
2017-12-22T14:50:08.086Z,34.17
2017-12-22T14:52:34.563Z,48.20
2017-12-22T14:55:01.077Z,48.90
2017-12-22T14:57:28.443Z,51.03
2017-12-22T14:59:54.935Z,25.27
2017-12-22T15:02:21.424Z,31.73
2017-12-22T15:04:47.910Z,29.50
2017-12-22T15:07:15.089Z,32.93
2017-12-22T15:09:42.971Z,46.30
2017-12-22T15:12:09.437Z,54.30
2017-12-22T15:14:36.674Z,43.13
2017-12-22T15:17:03.956Z,34.80
2017-12-22T15:19:30.551Z,32.70
2017-12-22T15:21:59.848Z,31.93
2017-12-22T15:24:26.403Z,23.53
2017-12-22T15:26:52.813Z,33.67
2017-12-22T15:29:19.200Z,30.03
2017-12-22T15:31:46.528Z,30.87
2017-12-22T15:34:14.757Z,30.37
2017-12-22T15:36:42.273Z,39.87
2017-12-22T15:39:08.830Z,28.50
2017-12-22T15:41:35.330Z,21.90
2017-12-22T15:44:02.004Z,35.23
2017-12-22T15:46:28.524Z,22.57
2017-12-22T15:48:54.918Z,30.87
2017-12-22T15:51:22.382Z,26.87
2017-12-22T15:53:48.981Z,41.83
2017-12-22T15:56:15.754Z,26.57
2017-12-22T16:01:23.452Z,35.77
2017-12-22T16:03:49.948Z,22.27
2017-12-22T16:06:16.473Z,23.23
2017-12-22T16:08:42.914Z,35.90
2017-12-22T16:11:10.214Z,22.13
2017-12-22T16:13:36.808Z,36.37
2017-12-22T16:16:04.518Z,36.73
2017-12-22T16:18:30.993Z,25.70
2017-12-22T16:20:57.451Z,26.27
2017-12-22T16:23:24.047Z,32.13
2017-12-22T16:25:50.491Z,24.67
2017-12-22T16:28:17.002Z,36.10
2017-12-22T16:30:43.590Z,30.67
2017-12-22T16:33:11.398Z,98.97
2017-12-22T16:35:37.930Z,104.80
2017-12-22T16:38:05.361Z,90.00
2017-12-22T16:40:32.015Z,94.77
2017-12-22T16:42:58.780Z,74.20
2017-12-22T16:45:25.440Z,46.93
2017-12-22T16:47:52.125Z,31.03
2017-12-22T16:50:19.283Z,33.30
2017-12-22T16:52:46.596Z,27.37
2017-12-22T16:55:13.080Z,37.10
2017-12-22T16:57:40.251Z,47.13
2017-12-22T17:00:07.415Z,39.23
2017-12-22T17:02:35.397Z,33.73
2017-12-22T17:05:02.631Z,44.57
2017-12-22T17:07:29.067Z,39.17
2017-12-22T17:09:55.551Z,49.73
2017-12-22T17:12:22.096Z,43.67
2017-12-22T17:14:49.181Z,48.57
2017-12-22T17:17:15.674Z,48.83
2017-12-22T17:19:42.279Z,59.17
2017-12-22T17:22:08.842Z,47.07
2017-12-22T17:24:35.469Z,44.37
2017-12-22T17:27:01.990Z,56.33
2017-12-22T17:29:28.470Z,82.87
2017-12-22T17:31:54.951Z,97.37
2017-12-22T17:34:21.379Z,115.40
2017-12-22T17:36:47.913Z,161.17
2017-12-22T17:39:14.437Z,68.57
2017-12-22T17:41:41.036Z,118.43
2017-12-22T17:44:07.472Z,54.67
2017-12-22T17:46:34.677Z,99.23
2017-12-22T17:49:01.164Z,44.63
2017-12-22T17:51:27.637Z,86.07
2017-12-22T17:53:54.119Z,71.93
2017-12-22T17:56:20.618Z,56.27
2017-12-22T17:58:47.192Z,60.53
2017-12-22T18:01:14.419Z,67.63
2017-12-22T18:03:40.923Z,78.87
2017-12-22T18:06:07.439Z,72.03
2017-12-22T18:08:34.756Z,47.50
2017-12-22T18:11:01.231Z,70.63
2017-12-22T18:13:27.859Z,62.43
2017-12-22T18:15:54.529Z,91.27
2017-12-22T18:18:21.008Z,130.33
2017-12-22T18:20:47.757Z,171.77
2017-12-22T18:23:14.259Z,189.40
2017-12-22T18:25:41.530Z,272.67
2017-12-22T18:28:08.045Z,133.43
2017-12-22T18:30:34.733Z,136.50
2017-12-22T18:33:01.983Z,84.80
2017-12-22T18:35:28.465Z,97.27
2017-12-22T18:37:55.716Z,132.90
2017-12-22T18:40:22.214Z,141.23
2017-12-22T18:42:48.637Z,206.57
2017-12-22T18:45:15.123Z,144.37
2017-12-22T18:47:41.587Z,146.03
2017-12-22T18:50:08.058Z,86.10
2017-12-22T18:52:34.615Z,103.83
2017-12-22T18:55:01.878Z,243.93
2017-12-22T18:57:28.394Z,228.57
2017-12-22T18:59:54.856Z,172.20
2017-12-22T19:02:22.100Z,95.90
2017-12-22T19:04:48.545Z,69.40
2017-12-22T19:07:15.763Z,84.93
2017-12-22T19:09:42.239Z,72.67
2017-12-22T19:12:08.747Z,76.07
2017-12-22T19:14:36.046Z,76.73
2017-12-22T19:17:02.494Z,103.67
2017-12-22T19:19:29.790Z,91.77
2017-12-22T19:21:56.394Z,94.90
2017-12-22T19:24:22.883Z,108.83
2017-12-22T19:26:49.375Z,185.90
2017-12-22T19:29:15.978Z,115.63
2017-12-22T19:31:42.524Z,211.87
2017-12-22T19:34:09.043Z,86.47
2017-12-22T19:36:36.290Z,194.07
2017-12-22T19:39:03.663Z,195.00
2017-12-22T19:41:30.952Z,126.57
2017-12-22T19:43:57.458Z,90.00
2017-12-22T19:46:24.293Z,88.07
2017-12-22T19:48:50.939Z,53.10
2017-12-22T19:51:17.843Z,62.23
2017-12-22T19:53:46.168Z,62.87
2017-12-22T19:56:12.758Z,63.13
2017-12-22T19:58:40.009Z,48.97
2017-12-22T20:01:06.661Z,45.67
2017-12-22T20:03:34.003Z,68.47
2017-12-22T20:06:00.555Z,67.97
2017-12-22T20:08:28.119Z,66.03
2017-12-22T20:10:54.626Z,49.57
2017-12-22T20:13:21.851Z,50.77
2017-12-22T20:15:49.106Z,55.07
2017-12-22T20:18:15.615Z,42.07
2017-12-22T20:20:42.128Z,43.43
2017-12-22T20:23:08.629Z,41.30
2017-12-22T20:25:35.151Z,42.00
2017-12-22T20:28:02.251Z,48.33
2017-12-22T20:30:28.848Z,46.10
2017-12-22T20:32:55.335Z,65.33
2017-12-22T20:35:21.799Z,58.10
2017-12-22T20:37:48.370Z,67.63
2017-12-22T20:40:15.695Z,40.87
2017-12-22T20:42:42.925Z,39.50
2017-12-22T20:45:09.812Z,45.83
2017-12-22T20:47:36.276Z,45.33
2017-12-22T20:50:03.655Z,48.77
2017-12-22T20:52:31.118Z,42.53
2017-12-22T20:54:57.646Z,41.57
2017-12-22T20:57:24.144Z,47.00
2017-12-22T20:59:50.726Z,51.43
2017-12-22T21:02:17.374Z,49.77
2017-12-22T21:04:44.648Z,44.83
2017-12-22T21:07:12.011Z,35.43
2017-12-22T21:09:39.982Z,46.13
2017-12-22T21:12:07.424Z,44.13
2017-12-22T21:14:33.953Z,45.90
2017-12-22T21:17:01.330Z,34.87
2017-12-22T21:19:27.839Z,39.10
2017-12-22T21:21:54.375Z,39.50
2017-12-22T21:24:20.882Z,41.43
2017-12-22T21:26:47.404Z,48.67
2017-12-22T21:29:13.923Z,68.60
2017-12-22T21:31:40.414Z,75.60
2017-12-22T21:34:06.923Z,76.47
2017-12-22T21:36:33.405Z,106.13
2017-12-22T21:38:59.898Z,64.87
2017-12-22T21:41:26.375Z,115.60
2017-12-22T21:43:52.891Z,75.10
2017-12-22T21:46:20.112Z,84.53
2017-12-22T21:48:46.742Z,98.47
2017-12-22T21:51:13.250Z,95.50
2017-12-22T21:53:39.830Z,104.50
2017-12-22T21:56:06.499Z,123.93
2017-12-22T21:58:33.738Z,67.10
2017-12-22T22:01:00.252Z,56.20
2017-12-22T22:03:27.133Z,83.33
2017-12-22T22:05:53.650Z,79.87
2017-12-22T22:08:20.123Z,95.73
2017-12-22T22:10:46.972Z,102.67
2017-12-22T22:13:13.438Z,89.90
2017-12-22T22:15:40.691Z,100.13
2017-12-22T22:18:08.075Z,75.90
2017-12-22T22:20:35.304Z,105.70
2017-12-22T22:23:01.813Z,84.57
2017-12-22T22:25:28.432Z,82.70
2017-12-22T22:27:54.923Z,109.27
2017-12-22T22:30:21.454Z,108.63
2017-12-22T22:32:47.949Z,83.57
2017-12-22T22:35:14.512Z,99.73
2017-12-22T22:37:41.117Z,84.43
2017-12-22T22:40:08.224Z,91.80
2017-12-22T22:42:34.695Z,95.37
2017-12-22T22:45:01.954Z,102.17
2017-12-22T22:47:29.262Z,112.40
2017-12-22T22:49:55.767Z,137.93
2017-12-22T22:52:22.206Z,134.10
2017-12-22T22:54:48.740Z,120.13
2017-12-22T22:57:15.239Z,140.57
2017-12-22T22:59:42.273Z,138.23
2017-12-22T23:02:09.375Z,125.77
2017-12-22T23:04:36.671Z,116.07
2017-12-22T23:07:11.996Z,143.93
2017-12-22T23:09:39.386Z,135.07
2017-12-22T23:12:05.976Z,129.73
2017-12-22T23:14:32.553Z,144.97
2017-12-22T23:16:58.997Z,157.83
2017-12-22T23:19:25.543Z,131.03
2017-12-22T23:21:51.998Z,136.30
2017-12-22T23:24:18.484Z,135.80
2017-12-22T23:26:44.962Z,147.37
2017-12-22T23:29:11.501Z,123.17
2017-12-22T23:31:50.230Z,158.17
2017-12-22T23:34:16.659Z,133.63
2017-12-22T23:36:43.450Z,143.93
2017-12-22T23:39:09.992Z,142.90
2017-12-22T23:41:36.744Z,111.57
2017-12-22T23:44:03.906Z,118.70
2017-12-22T23:46:30.360Z,134.30
2017-12-22T23:48:56.898Z,134.70
2017-12-22T23:51:23.407Z,151.43
2017-12-22T23:53:49.909Z,136.87
2017-12-22T23:56:17.126Z,125.47
2017-12-22T23:58:43.798Z,101.10
